createdAt,value
2023-02-23T00:00:41.877Z,16
2023-02-23T00:01:41.858Z,16
2023-02-23T00:02:41.849Z,16
2023-02-23T00:03:41.836Z,16
2023-02-23T00:04:41.827Z,16
2023-02-23T00:05:41.813Z,16
2023-02-23T00:06:41.803Z,16
2023-02-23T00:07:41.809Z,16
2023-02-23T00:08:41.827Z,16
2023-02-23T00:09:41.792Z,16
2023-02-23T00:10:41.761Z,16
2023-02-23T00:11:41.753Z,16
2023-02-23T00:12:41.752Z,16
2023-02-23T00:13:41.736Z,16
2023-02-23T00:14:41.718Z,16
2023-02-23T00:15:41.707Z,16
2023-02-23T00:16:41.700Z,16
2023-02-23T00:17:41.691Z,16
2023-02-23T00:18:41.700Z,16
2023-02-23T00:19:41.665Z,16
2023-02-23T00:20:41.651Z,16
2023-02-23T00:21:41.648Z,16
2023-02-23T00:22:41.630Z,16
2023-02-23T00:23:41.626Z,16
2023-02-23T00:24:41.612Z,16
2023-02-23T00:25:41.596Z,16
2023-02-23T00:26:41.591Z,16
2023-02-23T00:27:41.587Z,16
2023-02-23T00:28:41.564Z,16
2023-02-23T00:29:41.553Z,16
2023-02-23T00:30:41.552Z,16
2023-02-23T00:31:41.543Z,16
2023-02-23T00:32:41.524Z,16
2023-02-23T00:33:41.509Z,16
2023-02-23T00:34:41.499Z,16
2023-02-23T00:35:41.492Z,16
2023-02-23T00:36:41.480Z,16
2023-02-23T00:37:41.471Z,16
2023-02-23T00:38:41.456Z,16
2023-02-23T00:39:41.450Z,16
2023-02-23T00:40:41.445Z,16
2023-02-23T00:41:41.428Z,16
2023-02-23T00:42:41.416Z,16
2023-02-23T00:43:41.403Z,16
2023-02-23T00:44:41.424Z,16
2023-02-23T00:45:41.380Z,16
2023-02-23T00:46:41.375Z,16
2023-02-23T00:47:41.359Z,16
2023-02-23T00:48:41.351Z,16
2023-02-23T00:49:41.342Z,16
2023-02-23T00:50:41.353Z,16
2023-02-23T00:51:41.318Z,16
2023-02-23T00:52:41.317Z,16
2023-02-23T00:53:41.302Z,16
2023-02-23T00:54:41.289Z,16
2023-02-23T00:55:41.277Z,16
2023-02-23T00:56:41.272Z,16
2023-02-23T00:57:41.253Z,16
2023-02-23T00:58:41.245Z,16
2023-02-23T00:59:41.234Z,16
2023-02-23T01:00:41.225Z,16
2023-02-23T01:01:41.224Z,16
2023-02-23T01:02:41.203Z,16
2023-02-23T01:03:41.194Z,16
2023-02-23T01:04:41.192Z,16
2023-02-23T01:05:41.178Z,16
2023-02-23T01:06:41.156Z,16
2023-02-23T01:07:41.148Z,16
2023-02-23T01:08:41.138Z,16
2023-02-23T01:09:41.128Z,16
2023-02-23T01:10:41.114Z,16
2023-02-23T01:11:41.101Z,16
2023-02-23T01:12:41.096Z,16
2023-02-23T01:13:41.083Z,16
2023-02-23T01:14:41.073Z,16
2023-02-23T01:15:41.074Z,16
2023-02-23T01:16:41.048Z,16
2023-02-23T01:17:41.043Z,16
2023-02-23T01:18:41.035Z,16
2023-02-23T01:19:41.024Z,16
2023-02-23T01:20:41.006Z,16
2023-02-23T01:21:41.017Z,16
2023-02-23T01:22:40.989Z,16
2023-02-23T01:23:40.973Z,16
2023-02-23T01:24:40.967Z,16
2023-02-23T01:25:40.954Z,16
2023-02-23T01:26:40.945Z,16
2023-02-23T01:27:40.932Z,16
2023-02-23T01:28:40.920Z,16
2023-02-23T01:29:40.913Z,16
2023-02-23T01:30:40.910Z,16
2023-02-23T01:31:40.904Z,16
2023-02-23T01:32:40.882Z,16
2023-02-23T01:33:40.868Z,16
2023-02-23T01:34:40.861Z,16
2023-02-23T01:35:40.853Z,16
2023-02-23T01:36:40.835Z,16
2023-02-23T01:37:40.829Z,16
2023-02-23T01:38:40.816Z,16
2023-02-23T01:39:40.807Z,16
2023-02-23T01:40:40.796Z,16
2023-02-23T01:41:40.781Z,16
2023-02-23T01:42:40.776Z,16
2023-02-23T01:43:40.765Z,16
2023-02-23T01:44:40.757Z,16
2023-02-23T01:45:40.737Z,16
2023-02-23T01:46:40.736Z,16
2023-02-23T01:47:40.717Z,16
2023-02-23T01:48:40.706Z,16
2023-02-23T01:49:40.699Z,16
2023-02-23T01:50:40.692Z,16
2023-02-23T01:51:40.680Z,16
2023-02-23T01:52:40.666Z,16
2023-02-23T01:53:40.667Z,16
2023-02-23T01:54:40.648Z,16
2023-02-23T01:55:40.648Z,16
2023-02-23T01:56:40.622Z,16
2023-02-23T01:57:40.619Z,16
2023-02-23T01:58:40.603Z,16
2023-02-23T01:59:40.594Z,16
2023-02-23T02:00:40.582Z,16
2023-02-23T02:01:48.194Z,16
2023-02-23T02:02:48.147Z,16
2023-02-23T02:03:48.140Z,16
2023-02-23T02:04:48.129Z,16
2023-02-23T02:05:48.115Z,16
2023-02-23T02:06:48.105Z,16
2023-02-23T02:07:48.076Z,16
2023-02-23T02:08:40.513Z,16
2023-02-23T02:09:40.495Z,16
2023-02-23T02:10:40.472Z,16
2023-02-23T02:11:40.462Z,16
2023-02-23T02:12:40.448Z,16
2023-02-23T02:13:40.454Z,16
2023-02-23T02:14:40.442Z,16
2023-02-23T02:15:40.423Z,16
2023-02-23T02:16:40.413Z,16
2023-02-23T02:17:40.398Z,16
2023-02-23T02:18:40.386Z,16
2023-02-23T02:19:40.377Z,16
2023-02-23T02:20:40.382Z,16
2023-02-23T02:21:40.354Z,16
2023-02-23T02:22:48.947Z,16
2023-02-23T02:23:40.337Z,16
2023-02-23T02:24:40.343Z,16
2023-02-23T02:25:40.312Z,16
2023-02-23T02:26:40.309Z,16
2023-02-23T02:27:40.288Z,16
2023-02-23T02:28:40.283Z,16
2023-02-23T02:29:40.279Z,16
2023-02-23T02:30:40.261Z,16
2023-02-23T02:31:40.254Z,16
2023-02-23T02:32:40.241Z,16
2023-02-23T02:33:40.227Z,16
2023-02-23T02:34:40.222Z,16
2023-02-23T02:35:40.215Z,16
2023-02-23T02:36:40.191Z,16
2023-02-23T02:37:40.183Z,16
2023-02-23T02:38:40.176Z,16
2023-02-23T02:39:40.159Z,16
2023-02-23T02:40:40.150Z,16
2023-02-23T02:41:40.140Z,16
2023-02-23T02:42:40.125Z,16
2023-02-23T02:43:40.119Z,16
2023-02-23T02:44:40.108Z,16
2023-02-23T02:45:40.098Z,16
2023-02-23T02:46:40.091Z,16
2023-02-23T02:47:40.079Z,16
2023-02-23T02:48:40.066Z,16
2023-02-23T02:49:40.062Z,16
2023-02-23T02:50:40.053Z,16
2023-02-23T02:51:40.048Z,16
2023-02-23T02:52:40.022Z,16
2023-02-23T02:53:40.012Z,16
2023-02-23T02:54:39.996Z,16
2023-02-23T02:55:39.986Z,16
2023-02-23T02:56:39.984Z,16
2023-02-23T02:57:39.970Z,16
2023-02-23T02:58:39.956Z,16
2023-02-23T02:59:39.971Z,16
2023-02-23T03:00:47.509Z,16
2023-02-23T03:01:47.589Z,16
2023-02-23T03:02:48.785Z,16
2023-02-23T03:03:39.922Z,16
2023-02-23T03:04:39.901Z,16
2023-02-23T03:05:39.902Z,16
2023-02-23T03:06:39.893Z,16
2023-02-23T03:07:39.864Z,16
2023-02-23T03:08:39.858Z,16
2023-02-23T03:09:39.840Z,16
2023-02-23T03:10:39.836Z,16
2023-02-23T03:11:39.816Z,16
2023-02-23T03:12:39.885Z,16
2023-02-23T03:13:39.807Z,16
2023-02-23T03:14:39.792Z,16
2023-02-23T03:15:42.774Z,16
2023-02-23T03:16:39.765Z,16
2023-02-23T03:17:39.758Z,16
2023-02-23T03:18:39.742Z,16
2023-02-23T03:19:39.752Z,16
2023-02-23T03:20:39.729Z,16
2023-02-23T03:21:39.712Z,16
2023-02-23T03:22:39.708Z,16
2023-02-23T03:23:39.690Z,16
2023-02-23T03:24:39.688Z,16
2023-02-23T03:25:39.677Z,16
2023-02-23T03:26:39.691Z,16
2023-02-23T03:27:39.647Z,16
2023-02-23T03:28:39.642Z,16
2023-02-23T03:29:39.632Z,16
2023-02-23T03:30:39.637Z,16
2023-02-23T03:31:39.615Z,16
2023-02-23T03:32:39.593Z,16
2023-02-23T03:33:39.590Z,16
2023-02-23T03:34:39.568Z,16
2023-02-23T03:35:39.560Z,16
2023-02-23T03:36:39.576Z,16
2023-02-23T03:37:39.538Z,16
2023-02-23T03:38:39.526Z,16
2023-02-23T03:39:39.518Z,16
2023-02-23T03:40:39.511Z,16
2023-02-23T03:41:39.493Z,16
2023-02-23T03:42:39.513Z,16
2023-02-23T03:43:39.475Z,16
2023-02-23T03:44:39.495Z,16
2023-02-23T03:45:39.455Z,16
2023-02-23T03:46:39.448Z,16
2023-02-23T03:47:39.434Z,16
2023-02-23T03:48:39.425Z,16
2023-02-23T03:49:39.411Z,16
2023-02-23T03:50:39.399Z,16
2023-02-23T03:51:39.393Z,16
2023-02-23T03:52:39.385Z,16
2023-02-23T03:53:39.371Z,16
2023-02-23T03:54:39.365Z,16
2023-02-23T03:55:39.350Z,16
2023-02-23T03:56:39.343Z,16
2023-02-23T03:57:39.322Z,16
2023-02-23T03:58:39.323Z,16
2023-02-23T03:59:39.312Z,16
2023-02-23T04:00:39.294Z,16
2023-02-23T04:01:39.284Z,16
2023-02-23T04:02:39.275Z,16
2023-02-23T04:03:39.263Z,16
2023-02-23T04:04:39.253Z,16
2023-02-23T04:05:39.266Z,16
2023-02-23T04:06:39.251Z,16
2023-02-23T04:07:39.220Z,16
2023-02-23T04:08:39.224Z,16
2023-02-23T04:09:39.236Z,16
2023-02-23T04:10:39.190Z,16
2023-02-23T04:11:39.175Z,16
2023-02-23T04:12:39.194Z,16
2023-02-23T04:13:39.159Z,16
2023-02-23T04:14:39.183Z,16
2023-02-23T04:15:39.131Z,16
2023-02-23T04:16:39.149Z,12
2023-02-23T04:17:39.133Z,16
2023-02-23T04:18:39.113Z,16
2023-02-23T04:19:39.092Z,16
2023-02-23T04:20:39.080Z,16
2023-02-23T04:21:48.922Z,16
2023-02-23T04:24:14.008Z,16
2023-02-23T04:25:21.590Z,16
2023-02-23T04:26:22.564Z,12
2023-02-23T04:29:43.715Z,12
2023-02-23T04:30:43.683Z,12
2023-02-23T04:31:43.679Z,12
2023-02-23T04:32:43.665Z,12
2023-02-23T04:33:43.650Z,12
2023-02-23T04:34:43.654Z,12
2023-02-23T04:35:43.654Z,12
2023-02-23T04:36:43.623Z,12
2023-02-23T04:37:43.601Z,12
2023-02-23T04:38:43.598Z,12
2023-02-23T04:39:43.598Z,12
2023-02-23T04:40:43.580Z,12
2023-02-23T04:41:43.562Z,12
2023-02-23T04:42:51.234Z,12
2023-02-23T04:43:43.544Z,12
2023-02-23T04:44:43.554Z,12
2023-02-23T04:45:43.547Z,12
2023-02-23T04:46:43.661Z,12
2023-02-23T04:47:43.523Z,12
2023-02-23T04:48:43.489Z,12
2023-02-23T04:49:43.479Z,12
2023-02-23T04:50:43.462Z,12
2023-02-23T04:51:43.474Z,12
2023-02-23T04:52:43.442Z,12
2023-02-23T04:53:43.431Z,12
2023-02-23T04:54:43.448Z,16
2023-02-23T04:55:43.436Z,12
2023-02-23T04:56:43.399Z,12
2023-02-23T04:57:43.391Z,12
2023-02-23T04:58:43.400Z,12
2023-02-23T04:59:43.368Z,12
2023-02-23T05:00:43.354Z,12
2023-02-23T05:01:43.356Z,12
2023-02-23T05:02:43.332Z,12
2023-02-23T05:03:43.353Z,12
2023-02-23T05:04:43.318Z,12
2023-02-23T05:05:43.302Z,12
2023-02-23T05:06:43.291Z,12
2023-02-23T05:07:43.276Z,12
2023-02-23T05:08:43.270Z,12
2023-02-23T05:09:43.254Z,12
2023-02-23T05:10:43.304Z,12
2023-02-23T05:11:43.241Z,12
2023-02-23T05:12:43.225Z,12
2023-02-23T05:13:43.282Z,12
2023-02-23T05:14:43.277Z,12
2023-02-23T05:15:43.198Z,12
2023-02-23T05:16:43.187Z,12
2023-02-23T05:17:43.195Z,12
2023-02-23T05:18:43.163Z,12
2023-02-23T05:19:43.146Z,12
2023-02-23T05:20:43.144Z,12
2023-02-23T05:21:43.124Z,12
2023-02-23T05:22:43.165Z,12
2023-02-23T05:23:43.113Z,12
2023-02-23T05:24:43.094Z,12
2023-02-23T05:25:43.109Z,12
2023-02-23T05:26:43.092Z,16
2023-02-23T05:27:43.272Z,16
2023-02-23T05:28:43.062Z,16
2023-02-23T05:29:43.052Z,12
2023-02-23T05:30:43.042Z,12
2023-02-23T05:31:43.021Z,12
2023-02-23T05:32:43.007Z,12
2023-02-23T05:33:43.015Z,16
2023-02-23T05:34:43.002Z,12
2023-02-23T05:35:43.017Z,12
2023-02-23T05:36:42.991Z,12
2023-02-23T05:37:42.957Z,12
2023-02-23T05:38:43.030Z,12
2023-02-23T05:39:42.931Z,12
2023-02-23T05:40:42.935Z,12
2023-02-23T05:41:42.910Z,12
2023-02-23T05:42:42.923Z,12
2023-02-23T05:43:42.928Z,12
2023-02-23T05:44:42.883Z,12
2023-02-23T05:45:42.876Z,12
2023-02-23T05:46:42.856Z,12
2023-02-23T05:47:42.906Z,12
2023-02-23T05:48:42.835Z,12
2023-02-23T05:49:42.833Z,12
2023-02-23T05:50:42.825Z,12
2023-02-23T05:51:42.809Z,12
2023-02-23T05:52:42.797Z,12
2023-02-23T05:53:42.779Z,12
2023-02-23T05:54:42.772Z,12
2023-02-23T05:55:42.783Z,12
2023-02-23T05:56:42.747Z,12
2023-02-23T05:57:42.746Z,12
2023-02-23T05:58:42.723Z,12
2023-02-23T05:59:42.729Z,16
2023-02-23T06:00:42.708Z,16
2023-02-23T06:01:42.717Z,16
2023-02-23T06:02:42.680Z,16
2023-02-23T06:03:42.675Z,16
2023-02-23T06:04:42.694Z,16
2023-02-23T06:05:42.728Z,16
2023-02-23T06:06:42.730Z,16
2023-02-23T06:07:42.632Z,16
2023-02-23T06:08:42.634Z,16
2023-02-23T06:09:42.618Z,16
2023-02-23T06:10:42.608Z,16
2023-02-23T06:11:42.653Z,20
2023-02-23T06:12:42.578Z,20
2023-02-23T06:13:42.561Z,16
2023-02-23T06:14:42.555Z,20
2023-02-23T06:15:42.675Z,20
2023-02-23T06:16:42.538Z,20
2023-02-23T06:17:42.515Z,20
2023-02-23T06:18:42.508Z,20
2023-02-23T06:19:42.513Z,24
2023-02-23T06:20:42.522Z,16
2023-02-23T06:21:42.470Z,12
2023-02-23T06:22:42.461Z,16
2023-02-23T06:23:42.446Z,16
2023-02-23T06:24:42.442Z,16
2023-02-23T06:25:42.439Z,20
2023-02-23T06:26:42.458Z,16
2023-02-23T06:27:42.411Z,20
2023-02-23T06:28:42.423Z,20
2023-02-23T06:29:42.387Z,24
2023-02-23T06:30:42.373Z,24
2023-02-23T06:31:42.367Z,24
2023-02-23T06:32:42.359Z,24
2023-02-23T06:33:42.425Z,28
2023-02-23T06:34:42.332Z,28
2023-02-23T06:35:42.323Z,36
2023-02-23T06:36:42.313Z,36
2023-02-23T06:37:42.301Z,40
2023-02-23T06:38:42.304Z,44
2023-02-23T06:39:42.272Z,52
2023-02-23T06:40:42.265Z,56
2023-02-23T06:41:42.254Z,60
2023-02-23T06:42:42.336Z,64
2023-02-23T06:43:42.238Z,72
2023-02-23T06:44:42.236Z,76
2023-02-23T06:45:42.216Z,88
2023-02-23T06:46:42.207Z,92
2023-02-23T06:47:42.216Z,104
2023-02-23T06:48:42.204Z,112
2023-02-23T06:49:42.172Z,120
2023-02-23T06:50:42.170Z,128
2023-02-23T06:51:42.141Z,124
2023-02-23T06:52:42.134Z,128
2023-02-23T06:53:42.125Z,132
2023-02-23T06:54:42.113Z,140
2023-02-23T06:55:42.148Z,152
2023-02-23T06:56:42.090Z,164
2023-02-23T06:57:42.080Z,172
2023-02-23T06:58:42.102Z,184
2023-02-23T06:59:42.062Z,188
2023-02-23T07:00:42.049Z,196
2023-02-23T07:01:42.067Z,196
2023-02-23T07:02:42.027Z,200
2023-02-23T07:03:42.015Z,208
2023-02-23T07:04:42.008Z,208
2023-02-23T07:05:42.022Z,216
2023-02-23T07:06:41.990Z,236
2023-02-23T07:07:41.982Z,252
2023-02-23T07:08:41.955Z,268
2023-02-23T07:09:41.966Z,284
2023-02-23T07:10:41.941Z,296
2023-02-23T07:11:41.988Z,304
2023-02-23T07:12:41.915Z,312
2023-02-23T07:13:41.908Z,320
2023-02-23T07:14:41.894Z,328
2023-02-23T07:15:41.887Z,332
2023-02-23T07:16:41.906Z,348
2023-02-23T07:17:41.861Z,356
2023-02-23T07:18:41.855Z,368
2023-02-23T07:19:41.839Z,380
2023-02-23T07:20:41.827Z,392
2023-02-23T07:21:41.813Z,396
2023-02-23T07:22:41.805Z,400
2023-02-23T07:23:41.798Z,400
2023-02-23T07:24:41.783Z,412
2023-02-23T07:25:41.804Z,448
2023-02-23T07:26:41.778Z,484
2023-02-23T07:27:41.752Z,508
2023-02-23T07:28:41.749Z,516
2023-02-23T07:29:41.732Z,512
2023-02-23T07:30:41.738Z,520
2023-02-23T07:31:41.704Z,540
2023-02-23T07:32:41.698Z,564
2023-02-23T07:33:41.691Z,584
2023-02-23T07:34:41.700Z,596
2023-02-23T07:35:41.668Z,588
2023-02-23T07:36:41.654Z,576
2023-02-23T07:37:41.646Z,568
2023-02-23T07:38:41.655Z,588
2023-02-23T07:39:41.640Z,608
2023-02-23T07:40:41.622Z,660
2023-02-23T07:41:41.604Z,668
2023-02-23T07:42:41.587Z,648
2023-02-23T07:43:41.601Z,608
2023-02-23T07:44:41.575Z,592
2023-02-23T07:45:41.562Z,596
2023-02-23T07:46:41.560Z,632
2023-02-23T07:47:41.540Z,672
2023-02-23T07:48:41.561Z,688
2023-02-23T07:49:41.518Z,708
2023-02-23T07:50:41.510Z,700
2023-02-23T07:51:41.505Z,668
2023-02-23T07:52:41.565Z,644
2023-02-23T07:53:41.501Z,640
2023-02-23T07:54:41.467Z,644
2023-02-23T07:55:41.456Z,652
2023-02-23T07:56:41.490Z,660
2023-02-23T07:57:41.431Z,648
2023-02-23T07:58:41.440Z,660
2023-02-23T07:59:41.413Z,656
2023-02-23T08:00:41.402Z,636
2023-02-23T08:01:41.413Z,640
2023-02-23T08:02:41.380Z,672
2023-02-23T08:03:41.382Z,700
2023-02-23T08:04:41.437Z,684
2023-02-23T08:05:41.341Z,668
2023-02-23T08:06:41.353Z,668
2023-02-23T08:07:41.336Z,644
2023-02-23T08:08:41.310Z,628
2023-02-23T08:09:41.315Z,620
2023-02-23T08:10:41.309Z,636
2023-02-23T08:11:41.278Z,624
2023-02-23T08:12:41.269Z,640
2023-02-23T08:13:41.279Z,664
2023-02-23T08:14:41.245Z,704
2023-02-23T08:15:41.243Z,728
2023-02-23T08:16:41.226Z,736
2023-02-23T08:17:41.251Z,760
2023-02-23T08:18:41.207Z,728
2023-02-23T08:19:41.229Z,700
2023-02-23T08:20:41.183Z,732
2023-02-23T08:21:41.192Z,760
2023-02-23T08:22:41.159Z,780
2023-02-23T08:23:41.144Z,824
2023-02-23T08:24:41.149Z,852
2023-02-23T08:25:41.126Z,876
2023-02-23T08:26:41.123Z,928
2023-02-23T08:27:41.103Z,952
2023-02-23T08:28:41.090Z,944
2023-02-23T08:29:41.087Z,900
2023-02-23T08:30:41.110Z,820
2023-02-23T08:31:41.062Z,740
2023-02-23T08:32:41.050Z,728
2023-02-23T08:33:41.043Z,736
2023-02-23T08:34:41.038Z,784
2023-02-23T08:35:41.015Z,860
2023-02-23T08:36:41.030Z,888
2023-02-23T08:37:40.994Z,940
2023-02-23T08:38:40.986Z,948
2023-02-23T08:39:40.970Z,888
2023-02-23T08:40:40.979Z,864
2023-02-23T08:41:40.951Z,904
2023-02-23T08:42:40.954Z,916
2023-02-23T08:43:40.949Z,900
2023-02-23T08:44:40.923Z,828
2023-02-23T08:45:40.959Z,812
2023-02-23T08:46:40.945Z,828
2023-02-23T08:47:40.887Z,820
2023-02-23T08:48:40.884Z,868
2023-02-23T08:49:40.863Z,876
2023-02-23T08:50:40.850Z,884
2023-02-23T08:51:40.850Z,892
2023-02-23T08:52:40.907Z,908
2023-02-23T08:53:44.383Z,940
2023-02-23T08:54:40.839Z,940
2023-02-23T08:55:40.797Z,888
2023-02-23T08:56:40.784Z,892
2023-02-23T08:57:40.785Z,904
2023-02-23T08:58:40.779Z,940
2023-02-23T08:59:40.765Z,904
2023-02-23T09:00:40.810Z,884
2023-02-23T09:01:40.731Z,844
2023-02-23T09:02:40.720Z,884
2023-02-23T09:03:40.726Z,940
2023-02-23T09:04:40.700Z,1008
2023-02-23T09:05:40.697Z,1020
2023-02-23T09:06:40.695Z,1004
2023-02-23T09:07:40.666Z,1060
2023-02-23T09:08:40.669Z,1076
2023-02-23T09:09:40.654Z,1124
2023-02-23T09:10:40.634Z,1124
2023-02-23T09:11:40.627Z,1148
2023-02-23T09:12:40.623Z,1256
2023-02-23T09:13:40.602Z,1360
2023-02-23T09:14:40.594Z,1420
2023-02-23T09:15:40.577Z,1476
2023-02-23T09:16:40.718Z,1616
2023-02-23T09:17:40.563Z,1732
2023-02-23T09:18:40.548Z,1740
2023-02-23T09:19:40.534Z,1660
2023-02-23T09:20:40.535Z,1744
2023-02-23T09:21:40.545Z,1824
2023-02-23T09:22:40.500Z,1848
2023-02-23T09:23:40.540Z,1960
2023-02-23T09:24:40.482Z,2052
2023-02-23T09:25:40.474Z,2036
2023-02-23T09:26:40.471Z,2064
2023-02-23T09:27:40.592Z,2092
2023-02-23T09:28:40.444Z,2012
2023-02-23T09:29:40.447Z,1788
2023-02-23T09:30:40.439Z,1728
2023-02-23T09:31:40.602Z,1768
2023-02-23T09:32:40.421Z,1788
2023-02-23T09:33:40.381Z,1792
2023-02-23T09:34:40.377Z,1728
2023-02-23T09:35:40.359Z,1524
2023-02-23T09:36:40.362Z,1696
2023-02-23T09:37:40.351Z,1764
2023-02-23T09:38:40.359Z,1672
2023-02-23T09:39:40.322Z,1660
2023-02-23T09:40:40.306Z,1692
2023-02-23T09:41:40.375Z,1620
2023-02-23T09:42:40.661Z,1568
2023-02-23T09:43:40.338Z,1596
2023-02-23T09:44:40.281Z,1644
2023-02-23T09:45:40.250Z,1724
2023-02-23T09:46:40.248Z,1828
2023-02-23T09:47:40.275Z,1868
2023-02-23T09:48:40.232Z,1856
2023-02-23T09:49:40.220Z,1816
2023-02-23T09:50:40.200Z,1796
2023-02-23T09:51:40.198Z,1700
2023-02-23T09:52:40.233Z,1568
2023-02-23T09:53:40.171Z,1404
2023-02-23T09:54:40.152Z,1432
2023-02-23T09:55:40.186Z,1384
2023-02-23T09:56:40.149Z,1476
2023-02-23T09:57:40.136Z,1484
2023-02-23T09:58:40.120Z,1556
2023-02-23T09:59:40.100Z,1580
2023-02-23T10:00:40.093Z,1588
2023-02-23T10:01:40.079Z,1620
2023-02-23T10:02:40.150Z,1660
2023-02-23T10:03:40.062Z,1700
2023-02-23T10:04:40.076Z,1708
2023-02-23T10:05:40.153Z,1740
2023-02-23T10:06:40.047Z,1792
2023-02-23T10:07:40.027Z,1804
2023-02-23T10:08:40.024Z,1868
2023-02-23T10:09:39.993Z,1928
2023-02-23T10:10:40.005Z,2000
2023-02-23T10:11:39.967Z,2052
2023-02-23T10:12:39.956Z,2060
2023-02-23T10:13:39.946Z,2052
2023-02-23T10:14:39.994Z,1976
2023-02-23T10:15:40.785Z,2000
2023-02-23T10:16:39.921Z,1992
2023-02-23T10:17:39.908Z,2008
2023-02-23T10:18:39.905Z,1980
2023-02-23T10:19:39.952Z,1980
2023-02-23T10:20:39.920Z,2000
2023-02-23T10:21:39.906Z,1956
2023-02-23T10:22:39.897Z,1920
2023-02-23T10:23:39.930Z,1920
2023-02-23T10:24:39.863Z,1904
2023-02-23T10:25:39.842Z,1852
2023-02-23T10:26:39.842Z,1784
2023-02-23T10:27:39.837Z,1668
2023-02-23T10:28:39.812Z,1568
2023-02-23T10:29:39.778Z,1488
2023-02-23T10:30:39.783Z,1432
2023-02-23T10:31:39.753Z,1424
2023-02-23T10:32:39.762Z,1436
2023-02-23T10:33:39.736Z,1400
2023-02-23T10:34:39.734Z,1412
2023-02-23T10:35:39.704Z,1336
2023-02-23T10:36:39.693Z,1276
2023-02-23T10:37:39.695Z,1352
2023-02-23T10:38:39.735Z,1484
2023-02-23T10:39:39.674Z,1612
2023-02-23T10:40:39.654Z,1684
2023-02-23T10:41:39.643Z,1724
2023-02-23T10:42:39.676Z,1712
2023-02-23T10:43:39.663Z,1692
2023-02-23T10:44:39.635Z,1748
2023-02-23T10:45:39.609Z,1828
2023-02-23T10:46:39.620Z,1884
2023-02-23T10:47:39.581Z,1920
2023-02-23T10:50:06.521Z,1944
2023-02-23T10:51:07.995Z,1948
2023-02-23T10:52:06.369Z,1956
2023-02-23T10:53:06.320Z,1972
2023-02-23T10:54:06.334Z,2008
2023-02-23T10:55:06.445Z,2036
2023-02-23T10:56:06.284Z,2048
2023-02-23T10:57:06.277Z,2008
2023-02-23T10:58:06.266Z,1960
2023-02-23T10:59:06.259Z,1880
2023-02-23T11:00:06.256Z,1796
2023-02-23T11:01:06.234Z,1780
2023-02-23T11:02:06.231Z,1832
2023-02-23T11:03:06.210Z,1832
2023-02-23T11:04:06.299Z,1784
2023-02-23T11:05:06.276Z,1760
2023-02-23T11:06:06.198Z,1720
2023-02-23T11:07:06.186Z,1748
2023-02-23T11:08:06.159Z,1756
2023-02-23T11:09:06.156Z,1740
2023-02-23T11:10:06.208Z,1660
2023-02-23T11:11:06.122Z,1644
2023-02-23T11:12:06.128Z,1584
2023-02-23T11:13:06.151Z,1548
2023-02-23T11:14:06.283Z,1532
2023-02-23T11:15:06.083Z,1580
2023-02-23T11:16:06.074Z,1708
2023-02-23T11:17:06.090Z,1848
2023-02-23T11:18:06.137Z,1840
2023-02-23T11:19:06.097Z,1756
2023-02-23T11:20:06.032Z,1728
2023-02-23T11:21:06.050Z,1720
2023-02-23T11:22:06.020Z,1724
2023-02-23T11:23:05.998Z,1736
2023-02-23T11:24:06.001Z,1688
2023-02-23T11:25:06.033Z,1688
2023-02-23T11:26:05.963Z,1716
2023-02-23T11:27:05.954Z,1720
2023-02-23T11:28:05.967Z,1720
2023-02-23T11:29:05.941Z,1784
2023-02-23T11:30:06.025Z,1828
2023-02-23T11:31:05.914Z,1844
2023-02-23T11:32:05.902Z,1856
2023-02-23T11:33:05.901Z,1896
2023-02-23T11:34:05.995Z,1916
2023-02-23T11:35:05.867Z,1968
2023-02-23T11:36:05.855Z,2012
2023-02-23T11:37:05.903Z,1996
2023-02-23T11:38:05.832Z,1988
2023-02-23T11:39:05.825Z,1984
2023-02-23T11:40:05.821Z,1960
2023-02-23T11:41:05.840Z,1924
2023-02-23T11:42:05.803Z,1964
2023-02-23T11:43:05.797Z,1968
2023-02-23T11:44:05.945Z,1864
2023-02-23T11:45:05.770Z,1796
2023-02-23T11:46:05.755Z,1876
2023-02-23T11:47:05.747Z,1948
2023-02-23T11:48:05.739Z,1992
2023-02-23T11:49:05.717Z,1948
2023-02-23T11:50:05.754Z,2012
2023-02-23T11:51:05.762Z,2068
2023-02-23T11:52:05.687Z,2064
2023-02-23T11:53:05.680Z,2104
2023-02-23T11:54:05.669Z,2100
2023-02-23T11:55:05.651Z,2036
2023-02-23T11:56:05.638Z,2048
2023-02-23T11:57:05.628Z,2004
2023-02-23T11:58:05.629Z,1920
2023-02-23T11:59:05.605Z,1876
2023-02-23T12:00:05.594Z,1900
2023-02-23T12:01:05.586Z,1960
2023-02-23T12:02:05.588Z,1964
2023-02-23T12:03:05.567Z,1948
2023-02-23T12:04:05.570Z,1936
2023-02-23T12:05:05.543Z,1944
2023-02-23T12:06:05.534Z,1952
2023-02-23T12:07:05.542Z,1920
2023-02-23T12:08:05.528Z,1916
2023-02-23T12:09:05.521Z,1916
2023-02-23T12:10:05.519Z,1948
2023-02-23T12:11:05.477Z,1916
2023-02-23T12:12:05.473Z,1836
2023-02-23T12:13:05.466Z,1724
2023-02-23T12:14:05.443Z,1716
2023-02-23T12:15:05.438Z,1568
2023-02-23T12:16:05.635Z,1584
2023-02-23T12:17:05.420Z,1544
2023-02-23T12:18:05.401Z,1472
2023-02-23T12:19:05.408Z,1432
2023-02-23T12:20:05.385Z,1424
2023-02-23T12:21:05.371Z,1332
2023-02-23T12:22:05.379Z,1356
2023-02-23T12:23:05.372Z,1376
2023-02-23T12:24:05.364Z,1364
2023-02-23T12:25:05.352Z,1412
2023-02-23T12:26:05.338Z,1380
2023-02-23T12:27:05.313Z,1348
2023-02-23T12:28:05.314Z,1364
2023-02-23T12:29:05.297Z,1348
2023-02-23T12:30:05.288Z,1400
2023-02-23T12:31:05.267Z,1428
2023-02-23T12:32:05.261Z,1456
2023-02-23T12:33:05.271Z,1520
2023-02-23T12:34:05.234Z,1600
2023-02-23T12:35:05.226Z,1664
2023-02-23T12:36:05.218Z,1648
2023-02-23T12:37:05.214Z,1692
2023-02-23T12:38:05.194Z,1716
2023-02-23T12:39:05.191Z,1708
2023-02-23T12:40:05.175Z,1748
2023-02-23T12:41:05.211Z,1712
2023-02-23T12:42:05.557Z,1680
2023-02-23T12:43:05.136Z,1632
2023-02-23T12:44:05.124Z,1600
2023-02-23T12:45:05.124Z,1516
2023-02-23T12:46:05.275Z,1556
2023-02-23T12:47:05.101Z,1504
2023-02-23T12:48:05.087Z,1408
2023-02-23T12:49:05.076Z,1300
2023-02-23T12:50:05.079Z,1196
2023-02-23T12:51:05.058Z,1276
2023-02-23T12:52:05.037Z,1424
2023-02-23T12:53:05.035Z,1464
2023-02-23T12:54:05.019Z,1408
2023-02-23T12:55:05.004Z,1468
2023-02-23T12:56:05.032Z,1484
2023-02-23T12:57:05.001Z,1420
2023-02-23T12:58:04.983Z,1348
2023-02-23T12:59:04.992Z,1268
2023-02-23T13:00:04.953Z,1296
2023-02-23T13:01:04.953Z,1392
2023-02-23T13:02:04.955Z,1432
2023-02-23T13:03:04.960Z,1496
2023-02-23T13:04:04.918Z,1480
2023-02-23T13:05:04.915Z,1592
2023-02-23T13:06:04.888Z,1828
2023-02-23T13:07:04.907Z,1856
2023-02-23T13:08:04.873Z,1784
2023-02-23T13:09:04.861Z,1728
2023-02-23T13:10:04.844Z,1772
2023-02-23T13:11:04.847Z,1752
2023-02-23T13:12:04.827Z,1672
2023-02-23T13:13:04.935Z,1692
2023-02-23T13:14:04.830Z,1620
2023-02-23T13:15:04.810Z,1604
2023-02-23T13:16:04.782Z,1564
2023-02-23T13:17:04.913Z,1540
2023-02-23T13:18:04.840Z,1516
2023-02-23T13:19:04.756Z,1512
2023-02-23T13:20:04.746Z,1520
2023-02-23T13:21:04.726Z,1564
2023-02-23T13:22:04.721Z,1632
2023-02-23T13:23:04.718Z,1648
2023-02-23T13:24:04.700Z,1648
2023-02-23T13:25:04.714Z,1708
2023-02-23T13:26:04.686Z,1700
2023-02-23T13:28:38.456Z,1588
2023-02-23T13:29:46.080Z,1548
2023-02-23T13:30:38.417Z,1496
2023-02-23T13:31:38.374Z,1480
2023-02-23T13:32:38.406Z,1472
2023-02-23T13:33:38.363Z,1448
2023-02-23T13:34:38.415Z,1456
2023-02-23T13:35:39.258Z,1404
2023-02-23T13:36:38.628Z,1348
2023-02-23T13:37:38.322Z,1392
2023-02-23T13:38:38.410Z,1444
2023-02-23T13:39:38.287Z,1432
2023-02-23T13:40:38.263Z,1460
2023-02-23T13:41:38.252Z,1540
2023-02-23T13:42:38.245Z,1616
2023-02-23T13:43:38.228Z,1696
2023-02-23T13:44:38.256Z,1904
2023-02-23T13:45:38.225Z,1992
2023-02-23T13:46:38.211Z,2040
2023-02-23T13:47:38.187Z,2056
2023-02-23T13:48:38.207Z,2108
2023-02-23T13:49:38.293Z,2104
2023-02-23T13:50:38.162Z,2112
2023-02-23T13:51:38.148Z,2160
2023-02-23T13:52:38.137Z,2136
2023-02-23T13:53:38.207Z,2080
2023-02-23T13:54:38.145Z,2040
2023-02-23T13:55:38.101Z,1976
2023-02-23T13:56:38.141Z,1852